Shohomaru — JD3662 — position and weather

sailwx.info

Track history (hours):
 
Tides and Currents Weather Stations Pressure Air Temp Water Temp Dewpoint Dewpoint Depression Visibility Wind Speed Wind Dir Waves Ship Positions

Shohomaru

Last reported at 2017-Oct-18 00:30 UTC. Time now 2017-Oct-18 15:12 UTC.
Position N 34°41' E 135°12'.

Length 33 m; draft 3 m.

Type: Tug. MMSI: 431005375.

Date/timePositionNaut miles runAvg speedWind from/ knotsBaromVisibWave heightAir tempDewpointWater temp
2017-Oct-18 00:30N 34°41' E 135°12'1 2.3
2017-Oct-18 00:01N 34°41' E 135°13'3 5.9
2017-Oct-17 23:31N 34°41' E 135°17'0 0.4
2017-Oct-17 23:01N 34°41' E 135°17'1 1.8
2017-Oct-17 22:30N 34°41' E 135°18'2 3.2
2017-Oct-17 22:00N 34°42' E 135°17'2 3.1
2017-Oct-17 21:30N 34°41' E 135°18'0 0.6
2017-Oct-17 21:00N 34°41' E 135°17'0 0.0
2017-Oct-17 20:31N 34°41' E 135°17'0 0.0
2017-Oct-17 20:01N 34°41' E 135°17'0 0.0
2017-Oct-17 19:31N 34°41' E 135°17'1 2.5
2017-Oct-17 19:01N 34°41' E 135°16'1 1.0
2017-Oct-17 18:30N 34°41' E 135°15'2 3.5
2017-Oct-17 18:00N 34°40' E 135°13'0 0.0
2017-Oct-17 17:31N 34°40' E 135°13'0 0.0
2017-Oct-17 17:01N 34°40' E 135°13'0 0.0
2017-Oct-17 16:31N 34°40' E 135°13'2 3.1
2017-Oct-17 16:00N 34°39' E 135°15'0 0.4
2017-Oct-17 15:31N 34°39' E 135°15'0 0.0
2017-Oct-17 15:00N 34°39' E 135°15'0 0.0
2017-Oct-17 14:31N 34°39' E 135°15'0 0.0
2017-Oct-17 14:01N 34°39' E 135°15'1 1.8
2017-Oct-17 13:30N 34°40' E 135°14'0 0.4
2017-Oct-17 13:01N 34°40' E 135°14'0 0.4
2017-Oct-17 12:30N 34°40' E 135°14'0 0.0
2017-Oct-17 12:00N 34°40' E 135°14'0 0.0
2017-Oct-17 11:31N 34°40' E 135°14'0 0.0
2017-Oct-17 11:01N 34°40' E 135°14'2 3.6
2017-Oct-17 10:31N 34°42' E 135°15'0 0.3
2017-Oct-17 10:00N 34°42' E 135°15'1 1.6
2017-Oct-17 09:31N 34°42' E 135°16'0 0.0
2017-Oct-17 09:01N 34°42' E 135°16'0 0.0
2017-Oct-17 08:31N 34°42' E 135°16'0 0.0
2017-Oct-17 08:01N 34°42' E 135°16'1 2.2
2017-Oct-17 07:30N 34°42' E 135°17'0 0.8
2017-Oct-17 07:00N 34°42' E 135°18'4 8.6
2017-Oct-17 06:31N 34°41' E 135°13'0 0.0
2017-Oct-17 06:00N 34°41' E 135°13'0 0.0
2017-Oct-17 05:30N 34°41' E 135°13'1 1.8
2017-Oct-17 05:01N 34°42' E 135°14'0 0.9
2017-Oct-17 04:31N 34°41' E 135°14'1 2.7
2017-Oct-17 04:00N 34°40' E 135°15'0 0.0
2017-Oct-17 03:30N 34°40' E 135°15'1 2.6
2017-Oct-17 03:00N 34°41' E 135°13'1 2.2
2017-Oct-17 02:30N 34°41' E 135°12'0 0.0
2017-Oct-17 02:00N 34°41' E 135°12'0 0.0
2017-Oct-17 01:31N 34°41' E 135°12'0 0.0
2017-Oct-17 01:01N 34°41' E 135°12'0 0.0
2017-Oct-17 00:31N 34°41' E 135°12'1 2.1
2017-Oct-17 00:01N 34°40' E 135°11'1 1.1
2017-Oct-16 23:31N 34°41' E 135°11'0 0.1
2017-Oct-16 23:01N 34°41' E 135°11'1 1.6
2017-Oct-16 22:31N 34°41' E 135°12'0 0.0
2017-Oct-16 22:01N 34°41' E 135°12'0 0.0
2017-Oct-16 06:59N 34°41' E 135°12'0 0.0
2017-Oct-16 06:30N 34°41' E 135°12'1 1.7
2017-Oct-16 06:01N 34°41' E 135°11'1 1.7
2017-Oct-16 05:30N 34°41' E 135°12'0 0.0
2017-Oct-16 05:01N 34°41' E 135°12'0 0.0
2017-Oct-16 04:30N 34°41' E 135°12'0 0.0
2017-Oct-16 04:00N 34°41' E 135°12'0 0.0
2017-Oct-16 03:30N 34°41' E 135°12'0 0.0
2017-Oct-16 03:01N 34°41' E 135°12'0 0.0
2017-Oct-16 02:31N 34°41' E 135°12'0 0.0
2017-Oct-16 02:01N 34°41' E 135°12'0 0.0
2017-Oct-16 01:31N 34°41' E 135°12'0 0.0
2017-Oct-16 01:00N 34°41' E 135°12'0 0.0
2017-Oct-16 00:31N 34°41' E 135°12'0 0.0
2017-Oct-16 00:01N 34°41' E 135°12'0 0.0
2017-Oct-15 23:31N 34°41' E 135°12'0 0.0
2017-Oct-15 23:01N 34°41' E 135°12'0 0.0
2017-Oct-15 12:05N 34°41' E 135°12'0 0.0
2017-Oct-15 12:00N 34°41' E 135°12'2 5.0
2017-Oct-15 11:30N 34°41' E 135°15'0 0.2
2017-Oct-15 11:00N 34°41' E 135°15'2 3.6
2017-Oct-15 10:30N 34°39' E 135°16'1 3.0
2017-Oct-15 10:00N 34°40' E 135°14'1 2.1
2017-Oct-15 09:30N 34°40' E 135°13'0 0.0
2017-Oct-15 09:00N 34°40' E 135°13'0 0.0
2017-Oct-15 08:30N 34°40' E 135°13'0 0.0
2017-Oct-15 08:00N 34°40' E 135°13'0 0.0
2017-Oct-15 07:30N 34°40' E 135°13'0 0.0
2017-Oct-15 07:00N 34°40' E 135°13'0 0.0
2017-Oct-15 06:30N 34°40' E 135°13'4 7.2
2017-Oct-15 06:00N 34°41' E 135°17'0 0.9
2017-Oct-15 05:30N 34°41' E 135°17'4 8.6
2017-Oct-15 05:00N 34°41' E 135°12'0 0.2
2017-Oct-15 04:30N 34°41' E 135°12'0 0.0
2017-Oct-15 04:00N 34°41' E 135°12'0 0.0
2017-Oct-15 03:30N 34°41' E 135°12'0 0.0
2017-Oct-15 03:00N 34°41' E 135°12'0 0.0
2017-Oct-15 02:29N 34°41' E 135°12'0 0.0
2017-Oct-15 02:00N 34°41' E 135°12'0 0.0
2017-Oct-15 01:30N 34°41' E 135°12'0 0.0
2017-Oct-15 01:00N 34°41' E 135°12'0 0.0
2017-Oct-15 00:30N 34°41' E 135°12'0 0.0
2017-Oct-15 00:00N 34°41' E 135°12'0 0.0
2017-Oct-14 23:30N 34°41' E 135°12'0 0.0
2017-Oct-14 23:00N 34°41' E 135°12'0 0.0
2017-Oct-14 02:52N 34°41' E 135°12'0 0.0
2017-Oct-14 02:30N 34°41' E 135°12'0 0.0
2017-Oct-14 02:00N 34°41' E 135°12'0 0.0
2017-Oct-14 01:30N 34°41' E 135°12'0 0.0
2017-Oct-14 01:00N 34°41' E 135°12'0 0.0
2017-Oct-14 00:30N 34°41' E 135°12'0 0.0
2017-Oct-14 00:00N 34°41' E 135°12'0 0.0
2017-Oct-13 23:30N 34°41' E 135°12'1 1.4
2017-Oct-13 23:00N 34°41' E 135°13'2 3.9
2017-Oct-13 22:30N 34°41' E 135°15'1 2.4
2017-Oct-13 22:00N 34°40' E 135°15'1 3.0
2017-Oct-13 21:30N 34°41' E 135°13'1 2.1
2017-Oct-13 21:00N 34°41' E 135°12'0 0.0
2017-Oct-13 20:30N 34°41' E 135°12'0 0.0
2017-Oct-13 09:51N 34°41' E 135°12'0 0.2
2017-Oct-13 09:30N 34°41' E 135°12'2 3.4
2017-Oct-13 09:00N 34°40' E 135°14'1 2.5
2017-Oct-13 08:30N 34°39' E 135°15'3 5.1
2017-Oct-13 08:00N 34°39' E 135°12'1 2.7
2017-Oct-13 07:30N 34°41' E 135°12'0 0.0
2017-Oct-13 07:00N 34°41' E 135°12'0 0.0
2017-Oct-13 06:30N 34°41' E 135°12'0 0.0
2017-Oct-13 06:00N 34°41' E 135°12'0 0.0
2017-Oct-13 05:30N 34°41' E 135°12'0 0.0
2017-Oct-13 05:00N 34°41' E 135°12'0 0.0
2017-Oct-13 04:30N 34°41' E 135°12'0 0.0
2017-Oct-13 04:00N 34°41' E 135°12'0 0.0
2017-Oct-13 03:30N 34°41' E 135°12'0 0.0
2017-Oct-13 03:00N 34°41' E 135°12'0 0.0
2017-Oct-13 02:30N 34°41' E 135°12'0 0.0
2017-Oct-13 02:00N 34°41' E 135°12'0 0.0
2017-Oct-13 01:30N 34°41' E 135°12'0 0.0
2017-Oct-13 01:00N 34°41' E 135°12'0 0.0
2017-Oct-13 00:30N 34°41' E 135°12'3 5.9
2017-Oct-13 00:00N 34°42' E 135°15'0 0.5
2017-Oct-12 23:30N 34°42' E 135°16'0 0.3
2017-Oct-12 23:00N 34°42' E 135°15'1 2.0
2017-Oct-12 22:30N 34°41' E 135°15'3 5.4
2017-Oct-12 22:00N 34°42' E 135°18'1 1.2
2017-Oct-12 21:30N 34°42' E 135°18'5 9.7
2017-Oct-12 21:00N 34°41' E 135°12'0 0.1
2017-Oct-12 20:30N 34°41' E 135°12'0 0.0
2017-Oct-11 00:00N 34°41' E 135°12'0 0.0
2017-Oct-10 23:30N 34°41' E 135°12'0 1.0
2017-Oct-10 23:00N 34°41' E 135°13'2 4.4
2017-Oct-10 22:30N 34°41' E 135°15'1 1.6
2017-Oct-10 22:00N 34°40' E 135°15'2 4.2
2017-Oct-10 21:30N 34°41' E 135°12'0 0.0
2017-Oct-10 21:00N 34°41' E 135°12'0 0.0
2017-Oct-10 11:21N 34°41' E 135°12'2 6.7
2017-Oct-10 11:00N 34°40' E 135°15'1 1.4
2017-Oct-10 10:30N 34°40' E 135°14'0 0.1
2017-Oct-10 10:00N 34°40' E 135°14'0 0.6
2017-Oct-10 09:31N 34°40' E 135°14'0 0.0
2017-Oct-10 09:00N 34°40' E 135°14'0 0.0
2017-Oct-10 08:30N 34°40' E 135°14'0 0.0
2017-Oct-10 08:00N 34°40' E 135°14'1 2.4
2017-Oct-10 07:30N 34°41' E 135°15'0 0.2
2017-Oct-10 07:00N 34°41' E 135°15'2 4.1
2017-Oct-10 06:30N 34°41' E 135°13'0 0.1
2017-Oct-10 06:00N 34°41' E 135°13'0 0.3
2017-Oct-10 05:30N 34°41' E 135°13'2 3.3
2017-Oct-10 05:00N 34°40' E 135°14'2 4.0
2017-Oct-10 04:30N 34°39' E 135°16'2 3.4
2017-Oct-10 04:00N 34°40' E 135°15'2 4.5
2017-Oct-10 03:30N 34°41' E 135°12'0 0.0
2017-Oct-10 03:00N 34°41' E 135°12'0 0.0
2017-Oct-10 02:30N 34°41' E 135°12'0 0.0
2017-Oct-10 02:00N 34°41' E 135°12'0 0.0
2017-Oct-10 01:30N 34°41' E 135°12'0 0.0
2017-Oct-10 01:00N 34°41' E 135°12'0 0.0
2017-Oct-10 00:30N 34°41' E 135°12'0 0.0
2017-Oct-10 00:00N 34°41' E 135°12'0 0.2
2017-Oct-09 23:30N 34°41' E 135°12'3 5.0
2017-Oct-09 23:00N 34°41' E 135°15'1 1.8
2017-Oct-09 22:30N 34°40' E 135°15'0 0.9
2017-Oct-09 22:00N 34°40' E 135°16'2 3.6
2017-Oct-09 21:30N 34°41' E 135°14'1 2.4
2017-Oct-09 21:00N 34°41' E 135°12'0 0.0
2017-Oct-09 20:30N 34°41' E 135°12'0 0.0
2017-Oct-09 05:56N 34°41' E 135°12'0 0.0
2017-Oct-09 05:30N 34°41' E 135°12'0 0.0
2017-Oct-09 05:00N 34°41' E 135°12'0 0.0
2017-Oct-09 04:30N 34°41' E 135°12'0 0.0
2017-Oct-09 04:00N 34°41' E 135°12'0 0.0
2017-Oct-09 03:30N 34°41' E 135°12'0 0.0
2017-Oct-09 03:00N 34°41' E 135°12'0 0.0
2017-Oct-09 02:30N 34°41' E 135°12'0 0.0
2017-Oct-09 02:00N 34°41' E 135°12'0 0.0
2017-Oct-09 01:30N 34°41' E 135°12'1 2.0
2017-Oct-09 01:00N 34°40' E 135°13'1 2.2
2017-Oct-09 00:29N 34°40' E 135°15'1 1.7
2017-Oct-09 00:00N 34°41' E 135°14'1 2.8
2017-Oct-08 23:30N 34°41' E 135°12'0 0.0
2017-Oct-08 23:00N 34°41' E 135°12'0 0.0
2017-Oct-08 22:30N 34°41' E 135°12'  
Track history (hours):
 
Tides and Currents Weather Stations Pressure Air Temp Water Temp Dewpoint Dewpoint Depression Visibility Wind Speed Wind Dir Waves Ship Positions

Shohomaru

Last reported at 2017-Oct-18 00:30 UTC. Time now 2017-Oct-18 15:12 UTC.
Position N 34°41' E 135°12'.

Length 33 m; draft 3 m.

Type: Tug. MMSI: 431005375.

Date/timePositionNaut miles runAvg speedWind from/ knotsBaromVisibWave heightAir tempDewpointWater temp
2017-Oct-18 00:30N 34°41' E 135°12'1 2.3
2017-Oct-18 00:01N 34°41' E 135°13'3 5.9
2017-Oct-17 23:31N 34°41' E 135°17'0 0.4
2017-Oct-17 23:01N 34°41' E 135°17'1 1.8
2017-Oct-17 22:30N 34°41' E 135°18'2 3.2
2017-Oct-17 22:00N 34°42' E 135°17'2 3.1
2017-Oct-17 21:30N 34°41' E 135°18'0 0.6
2017-Oct-17 21:00N 34°41' E 135°17'0 0.0
2017-Oct-17 20:31N 34°41' E 135°17'0 0.0
2017-Oct-17 20:01N 34°41' E 135°17'0 0.0
2017-Oct-17 19:31N 34°41' E 135°17'1 2.5
2017-Oct-17 19:01N 34°41' E 135°16'1 1.0
2017-Oct-17 18:30N 34°41' E 135°15'2 3.5
2017-Oct-17 18:00N 34°40' E 135°13'0 0.0
2017-Oct-17 17:31N 34°40' E 135°13'0 0.0
2017-Oct-17 17:01N 34°40' E 135°13'0 0.0
2017-Oct-17 16:31N 34°40' E 135°13'2 3.1
2017-Oct-17 16:00N 34°39' E 135°15'0 0.4
2017-Oct-17 15:31N 34°39' E 135°15'0 0.0
2017-Oct-17 15:00N 34°39' E 135°15'0 0.0
2017-Oct-17 14:31N 34°39' E 135°15'0 0.0
2017-Oct-17 14:01N 34°39' E 135°15'1 1.8
2017-Oct-17 13:30N 34°40' E 135°14'0 0.4
2017-Oct-17 13:01N 34°40' E 135°14'0 0.4
2017-Oct-17 12:30N 34°40' E 135°14'0 0.0
2017-Oct-17 12:00N 34°40' E 135°14'0 0.0
2017-Oct-17 11:31N 34°40' E 135°14'0 0.0
2017-Oct-17 11:01N 34°40' E 135°14'2 3.6
2017-Oct-17 10:31N 34°42' E 135°15'0 0.3
2017-Oct-17 10:00N 34°42' E 135°15'1 1.6
2017-Oct-17 09:31N 34°42' E 135°16'0 0.0
2017-Oct-17 09:01N 34°42' E 135°16'0 0.0
2017-Oct-17 08:31N 34°42' E 135°16'0 0.0
2017-Oct-17 08:01N 34°42' E 135°16'1 2.2
2017-Oct-17 07:30N 34°42' E 135°17'0 0.8
2017-Oct-17 07:00N 34°42' E 135°18'4 8.6
2017-Oct-17 06:31N 34°41' E 135°13'0 0.0
2017-Oct-17 06:00N 34°41' E 135°13'0 0.0
2017-Oct-17 05:30N 34°41' E 135°13'1 1.8
2017-Oct-17 05:01N 34°42' E 135°14'0 0.9
2017-Oct-17 04:31N 34°41' E 135°14'1 2.7
2017-Oct-17 04:00N 34°40' E 135°15'0 0.0
2017-Oct-17 03:30N 34°40' E 135°15'1 2.6
2017-Oct-17 03:00N 34°41' E 135°13'1 2.2
2017-Oct-17 02:30N 34°41' E 135°12'0 0.0
2017-Oct-17 02:00N 34°41' E 135°12'0 0.0
2017-Oct-17 01:31N 34°41' E 135°12'0 0.0
2017-Oct-17 01:01N 34°41' E 135°12'0 0.0
2017-Oct-17 00:31N 34°41' E 135°12'1 2.1
2017-Oct-17 00:01N 34°40' E 135°11'1 1.1
2017-Oct-16 23:31N 34°41' E 135°11'0 0.1
2017-Oct-16 23:01N 34°41' E 135°11'1 1.6
2017-Oct-16 22:31N 34°41' E 135°12'0 0.0
2017-Oct-16 22:01N 34°41' E 135°12'0 0.0
2017-Oct-16 06:59N 34°41' E 135°12'0 0.0
2017-Oct-16 06:30N 34°41' E 135°12'1 1.7
2017-Oct-16 06:01N 34°41' E 135°11'1 1.7
2017-Oct-16 05:30N 34°41' E 135°12'0 0.0
2017-Oct-16 05:01N 34°41' E 135°12'0 0.0
2017-Oct-16 04:30N 34°41' E 135°12'0 0.0
2017-Oct-16 04:00N 34°41' E 135°12'0 0.0
2017-Oct-16 03:30N 34°41' E 135°12'0 0.0
2017-Oct-16 03:01N 34°41' E 135°12'0 0.0
2017-Oct-16 02:31N 34°41' E 135°12'0 0.0
2017-Oct-16 02:01N 34°41' E 135°12'0 0.0
2017-Oct-16 01:31N 34°41' E 135°12'0 0.0
2017-Oct-16 01:00N 34°41' E 135°12'0 0.0
2017-Oct-16 00:31N 34°41' E 135°12'0 0.0
2017-Oct-16 00:01N 34°41' E 135°12'0 0.0
2017-Oct-15 23:31N 34°41' E 135°12'0 0.0
2017-Oct-15 23:01N 34°41' E 135°12'0 0.0
2017-Oct-15 12:05N 34°41' E 135°12'0 0.0
2017-Oct-15 12:00N 34°41' E 135°12'2 5.0
2017-Oct-15 11:30N 34°41' E 135°15'0 0.2
2017-Oct-15 11:00N 34°41' E 135°15'2 3.6
2017-Oct-15 10:30N 34°39' E 135°16'1 3.0
2017-Oct-15 10:00N 34°40' E 135°14'1 2.1
2017-Oct-15 09:30N 34°40' E 135°13'0 0.0
2017-Oct-15 09:00N 34°40' E 135°13'0 0.0
2017-Oct-15 08:30N 34°40' E 135°13'0 0.0
2017-Oct-15 08:00N 34°40' E 135°13'0 0.0
2017-Oct-15 07:30N 34°40' E 135°13'0 0.0
2017-Oct-15 07:00N 34°40' E 135°13'0 0.0
2017-Oct-15 06:30N 34°40' E 135°13'4 7.2
2017-Oct-15 06:00N 34°41' E 135°17'0 0.9
2017-Oct-15 05:30N 34°41' E 135°17'4 8.6
2017-Oct-15 05:00N 34°41' E 135°12'0 0.2
2017-Oct-15 04:30N 34°41' E 135°12'0 0.0
2017-Oct-15 04:00N 34°41' E 135°12'0 0.0
2017-Oct-15 03:30N 34°41' E 135°12'0 0.0
2017-Oct-15 03:00N 34°41' E 135°12'0 0.0
2017-Oct-15 02:29N 34°41' E 135°12'0 0.0
2017-Oct-15 02:00N 34°41' E 135°12'0 0.0
2017-Oct-15 01:30N 34°41' E 135°12'0 0.0
2017-Oct-15 01:00N 34°41' E 135°12'0 0.0
2017-Oct-15 00:30N 34°41' E 135°12'0 0.0
2017-Oct-15 00:00N 34°41' E 135°12'0 0.0
2017-Oct-14 23:30N 34°41' E 135°12'0 0.0
2017-Oct-14 23:00N 34°41' E 135°12'0 0.0
2017-Oct-14 02:52N 34°41' E 135°12'0 0.0
2017-Oct-14 02:30N 34°41' E 135°12'0 0.0
2017-Oct-14 02:00N 34°41' E 135°12'0 0.0
2017-Oct-14 01:30N 34°41' E 135°12'0 0.0
2017-Oct-14 01:00N 34°41' E 135°12'0 0.0
2017-Oct-14 00:30N 34°41' E 135°12'0 0.0
2017-Oct-14 00:00N 34°41' E 135°12'0 0.0
2017-Oct-13 23:30N 34°41' E 135°12'1 1.4
2017-Oct-13 23:00N 34°41' E 135°13'2 3.9
2017-Oct-13 22:30N 34°41' E 135°15'1 2.4
2017-Oct-13 22:00N 34°40' E 135°15'1 3.0
2017-Oct-13 21:30N 34°41' E 135°13'1 2.1
2017-Oct-13 21:00N 34°41' E 135°12'0 0.0
2017-Oct-13 20:30N 34°41' E 135°12'0 0.0
2017-Oct-13 09:51N 34°41' E 135°12'0 0.2
2017-Oct-13 09:30N 34°41' E 135°12'2 3.4
2017-Oct-13 09:00N 34°40' E 135°14'1 2.5
2017-Oct-13 08:30N 34°39' E 135°15'3 5.1
2017-Oct-13 08:00N 34°39' E 135°12'1 2.7
2017-Oct-13 07:30N 34°41' E 135°12'0 0.0
2017-Oct-13 07:00N 34°41' E 135°12'0 0.0
2017-Oct-13 06:30N 34°41' E 135°12'0 0.0
2017-Oct-13 06:00N 34°41' E 135°12'0 0.0
2017-Oct-13 05:30N 34°41' E 135°12'0 0.0
2017-Oct-13 05:00N 34°41' E 135°12'0 0.0
2017-Oct-13 04:30N 34°41' E 135°12'0 0.0
2017-Oct-13 04:00N 34°41' E 135°12'0 0.0
2017-Oct-13 03:30N 34°41' E 135°12'0 0.0
2017-Oct-13 03:00N 34°41' E 135°12'0 0.0
2017-Oct-13 02:30N 34°41' E 135°12'0 0.0
2017-Oct-13 02:00N 34°41' E 135°12'0 0.0
2017-Oct-13 01:30N 34°41' E 135°12'0 0.0
2017-Oct-13 01:00N 34°41' E 135°12'0 0.0
2017-Oct-13 00:30N 34°41' E 135°12'3 5.9
2017-Oct-13 00:00N 34°42' E 135°15'0 0.5
2017-Oct-12 23:30N 34°42' E 135°16'0 0.3
2017-Oct-12 23:00N 34°42' E 135°15'1 2.0
2017-Oct-12 22:30N 34°41' E 135°15'3 5.4
2017-Oct-12 22:00N 34°42' E 135°18'1 1.2
2017-Oct-12 21:30N 34°42' E 135°18'5 9.7
2017-Oct-12 21:00N 34°41' E 135°12'0 0.1
2017-Oct-12 20:30N 34°41' E 135°12'0 0.0
2017-Oct-11 00:00N 34°41' E 135°12'0 0.0
2017-Oct-10 23:30N 34°41' E 135°12'0 1.0
2017-Oct-10 23:00N 34°41' E 135°13'2 4.4
2017-Oct-10 22:30N 34°41' E 135°15'1 1.6
2017-Oct-10 22:00N 34°40' E 135°15'2 4.2
2017-Oct-10 21:30N 34°41' E 135°12'0 0.0
2017-Oct-10 21:00N 34°41' E 135°12'0 0.0
2017-Oct-10 11:21N 34°41' E 135°12'2 6.7
2017-Oct-10 11:00N 34°40' E 135°15'1 1.4
2017-Oct-10 10:30N 34°40' E 135°14'0 0.1
2017-Oct-10 10:00N 34°40' E 135°14'0 0.6
2017-Oct-10 09:31N 34°40' E 135°14'0 0.0
2017-Oct-10 09:00N 34°40' E 135°14'0 0.0
2017-Oct-10 08:30N 34°40' E 135°14'0 0.0
2017-Oct-10 08:00N 34°40' E 135°14'1 2.4
2017-Oct-10 07:30N 34°41' E 135°15'0 0.2
2017-Oct-10 07:00N 34°41' E 135°15'2 4.1
2017-Oct-10 06:30N 34°41' E 135°13'0 0.1
2017-Oct-10 06:00N 34°41' E 135°13'0 0.3
2017-Oct-10 05:30N 34°41' E 135°13'2 3.3
2017-Oct-10 05:00N 34°40' E 135°14'2 4.0
2017-Oct-10 04:30N 34°39' E 135°16'2 3.4
2017-Oct-10 04:00N 34°40' E 135°15'2 4.5
2017-Oct-10 03:30N 34°41' E 135°12'0 0.0
2017-Oct-10 03:00N 34°41' E 135°12'0 0.0
2017-Oct-10 02:30N 34°41' E 135°12'0 0.0
2017-Oct-10 02:00N 34°41' E 135°12'0 0.0
2017-Oct-10 01:30N 34°41' E 135°12'0 0.0
2017-Oct-10 01:00N 34°41' E 135°12'0 0.0
2017-Oct-10 00:30N 34°41' E 135°12'0 0.0
2017-Oct-10 00:00N 34°41' E 135°12'0 0.2
2017-Oct-09 23:30N 34°41' E 135°12'3 5.0
2017-Oct-09 23:00N 34°41' E 135°15'1 1.8
2017-Oct-09 22:30N 34°40' E 135°15'0 0.9
2017-Oct-09 22:00N 34°40' E 135°16'2 3.6
2017-Oct-09 21:30N 34°41' E 135°14'1 2.4
2017-Oct-09 21:00N 34°41' E 135°12'0 0.0
2017-Oct-09 20:30N 34°41' E 135°12'0 0.0
2017-Oct-09 05:56N 34°41' E 135°12'0 0.0
2017-Oct-09 05:30N 34°41' E 135°12'0 0.0
2017-Oct-09 05:00N 34°41' E 135°12'0 0.0
2017-Oct-09 04:30N 34°41' E 135°12'0 0.0
2017-Oct-09 04:00N 34°41' E 135°12'0 0.0
2017-Oct-09 03:30N 34°41' E 135°12'0 0.0
2017-Oct-09 03:00N 34°41' E 135°12'0 0.0
2017-Oct-09 02:30N 34°41' E 135°12'0 0.0
2017-Oct-09 02:00N 34°41' E 135°12'0 0.0
2017-Oct-09 01:30N 34°41' E 135°12'1 2.0
2017-Oct-09 01:00N 34°40' E 135°13'1 2.2
2017-Oct-09 00:29N 34°40' E 135°15'1 1.7
2017-Oct-09 00:00N 34°41' E 135°14'1 2.8
2017-Oct-08 23:30N 34°41' E 135°12'0 0.0
2017-Oct-08 23:00N 34°41' E 135°12'0 0.0
2017-Oct-08 22:30N 34°41' E 135°12'  

Dump ship's entire track history